sensor_id;sensor_type;location;lat;lon;timestamp;pressure;altitude;pressure_sealevel;temperature;humidity
55468;BME280;41332;42.702;23.200;2022-09-03T00:02:14;93996.50;;;15.51;90.28
55468;BME280;41332;42.702;23.200;2022-09-03T00:10:11;94004.53;;;15.58;89.71
55468;BME280;41332;42.702;23.200;2022-09-03T00:12:42;93998.84;;;15.56;90.07
55468;BME280;41332;42.702;23.200;2022-09-03T00:15:12;94001.06;;;15.54;90.08
55468;BME280;41332;42.702;23.200;2022-09-03T00:17:51;94002.66;;;15.58;90.04
55468;BME280;41332;42.702;23.200;2022-09-03T00:22:51;93992.91;;;15.62;90.04
55468;BME280;41332;42.702;23.200;2022-09-03T00:25:22;93991.00;;;15.63;89.77
55468;BME280;41332;42.702;23.200;2022-09-03T00:27:52;93997.03;;;15.60;89.84
55468;BME280;41332;42.702;23.200;2022-09-03T00:30:20;93990.53;;;15.57;89.96
55468;BME280;41332;42.702;23.200;2022-09-03T00:35:29;93984.44;;;15.53;89.54
55468;BME280;41332;42.702;23.200;2022-09-03T00:37:56;93977.53;;;15.48;89.02
55468;BME280;41332;42.702;23.200;2022-09-03T00:43:02;93985.34;;;15.41;89.39
55468;BME280;41332;42.702;23.200;2022-09-03T00:51:38;93995.19;;;15.41;89.19
55468;BME280;41332;42.702;23.200;2022-09-03T01:00:05;93987.31;;;15.44;89.28
55468;BME280;41332;42.702;23.200;2022-09-03T01:02:50;93998.72;;;15.48;89.21
55468;BME280;41332;42.702;23.200;2022-09-03T01:13:49;93999.94;;;15.31;88.81
55468;BME280;41332;42.702;23.200;2022-09-03T01:16:39;93993.84;;;15.27;89.24
55468;BME280;41332;42.702;23.200;2022-09-03T01:30:11;94016.16;;;15.07;89.35
55468;BME280;41332;42.702;23.200;2022-09-03T01:32:55;94024.28;;;14.98;90.02
55468;BME280;41332;42.702;23.200;2022-09-03T01:38:14;94021.56;;;14.94;90.38
55468;BME280;41332;42.702;23.200;2022-09-03T01:45:58;94021.84;;;14.89;90.48
55468;BME280;41332;42.702;23.200;2022-09-03T01:48:45;94015.19;;;14.95;90.18
55468;BME280;41332;42.702;23.200;2022-09-03T01:51:23;94021.22;;;14.96;90.57
55468;BME280;41332;42.702;23.200;2022-09-03T01:54:19;94019.34;;;14.96;90.58
55468;BME280;41332;42.702;23.200;2022-09-03T02:00:15;94021.78;;;15.05;90.24
55468;BME280;41332;42.702;23.200;2022-09-03T02:02:34;94016.63;;;15.12;89.87
55468;BME280;41332;42.702;23.200;2022-09-03T02:07:36;94023.00;;;15.11;89.97
55468;BME280;41332;42.702;23.200;2022-09-03T02:10:05;94024.19;;;15.14;90.02
55468;BME280;41332;42.702;23.200;2022-09-03T02:12:31;94018.59;;;15.15;89.71
55468;BME280;41332;42.702;23.200;2022-09-03T02:15:05;94022.44;;;15.22;89.53
55468;BME280;41332;42.702;23.200;2022-09-03T02:17:32;94015.34;;;15.26;89.41
55468;BME280;41332;42.702;23.200;2022-09-03T02:20:03;94015.13;;;15.35;89.34
55468;BME280;41332;42.702;23.200;2022-09-03T02:22:29;94020.13;;;15.40;88.86
55468;BME280;41332;42.702;23.200;2022-09-03T02:24:55;94008.56;;;15.48;88.38
55468;BME280;41332;42.702;23.200;2022-09-03T02:27:20;94017.25;;;15.48;87.97
55468;BME280;41332;42.702;23.200;2022-09-03T02:29:46;94025.66;;;15.54;87.94
55468;BME280;41332;42.702;23.200;2022-09-03T02:32:11;94031.72;;;15.55;88.41
55468;BME280;41332;42.702;23.200;2022-09-03T02:34:39;94023.50;;;15.60;87.89
55468;BME280;41332;42.702;23.200;2022-09-03T02:37:11;94020.66;;;15.49;88.00
55468;BME280;41332;42.702;23.200;2022-09-03T02:39:36;94026.28;;;15.47;88.74
55468;BME280;41332;42.702;23.200;2022-09-03T02:42:03;94032.00;;;15.49;88.48
55468;BME280;41332;42.702;23.200;2022-09-03T02:44:34;94030.94;;;15.54;88.25
55468;BME280;41332;42.702;23.200;2022-09-03T02:47:04;94026.88;;;15.60;88.00
55468;BME280;41332;42.702;23.200;2022-09-03T02:49:29;94029.97;;;15.62;87.83
55468;BME280;41332;42.702;23.200;2022-09-03T02:52:00;94027.66;;;15.61;87.77
55468;BME280;41332;42.702;23.200;2022-09-03T02:54:26;94027.59;;;15.57;87.96
55468;BME280;41332;42.702;23.200;2022-09-03T02:56:56;94034.72;;;15.53;87.97
55468;BME280;41332;42.702;23.200;2022-09-03T02:59:22;94030.47;;;15.48;87.68
55468;BME280;41332;42.702;23.200;2022-09-03T03:01:47;94032.09;;;15.53;87.72
55468;BME280;41332;42.702;23.200;2022-09-03T03:04:13;94034.72;;;15.53;87.56
55468;BME280;41332;42.702;23.200;2022-09-03T03:06:39;94036.22;;;15.54;87.41
55468;BME280;41332;42.702;23.200;2022-09-03T03:09:04;94030.13;;;15.50;87.40
55468;BME280;41332;42.702;23.200;2022-09-03T03:11:30;94029.44;;;15.53;87.37
55468;BME280;41332;42.702;23.200;2022-09-03T03:13:56;94029.44;;;15.53;87.84
55468;BME280;41332;42.702;23.200;2022-09-03T03:16:21;94020.78;;;15.56;87.32
55468;BME280;41332;42.702;23.200;2022-09-03T03:18:47;94023.06;;;15.58;87.48
55468;BME280;41332;42.702;23.200;2022-09-03T03:21:16;94022.72;;;15.59;87.27
55468;BME280;41332;42.702;23.200;2022-09-03T03:23:42;94024.25;;;15.60;87.29
55468;BME280;41332;42.702;23.200;2022-09-03T03:26:13;94026.88;;;15.60;87.12
55468;BME280;41332;42.702;23.200;2022-09-03T03:28:39;94020.91;;;15.63;87.07
55468;BME280;41332;42.702;23.200;2022-09-03T03:31:12;94026.25;;;15.67;87.25
55468;BME280;41332;42.702;23.200;2022-09-03T03:33:38;94030.41;;;15.68;87.40
55468;BME280;41332;42.702;23.200;2022-09-03T03:38:34;94025.56;;;15.70;87.44
55468;BME280;41332;42.702;23.200;2022-09-03T03:41:08;94030.91;;;15.74;87.26
55468;BME280;41332;42.702;23.200;2022-09-03T03:43:34;94032.78;;;15.73;87.26
55468;BME280;41332;42.702;23.200;2022-09-03T03:45:59;94033.13;;;15.72;87.43
55468;BME280;41332;42.702;23.200;2022-09-03T03:48:25;94025.06;;;15.64;87.65
55468;BME280;41332;42.702;23.200;2022-09-03T03:50:51;94021.88;;;15.55;88.07
55468;BME280;41332;42.702;23.200;2022-09-03T03:53:16;94027.31;;;15.62;88.13
55468;BME280;41332;42.702;23.200;2022-09-03T03:55:42;94040.47;;;15.59;89.00
55468;BME280;41332;42.702;23.200;2022-09-03T03:58:07;94042.78;;;15.60;88.94
55468;BME280;41332;42.702;23.200;2022-09-03T04:00:33;94036.78;;;15.63;88.68
55468;BME280;41332;42.702;23.200;2022-09-03T04:03:02;94031.19;;;15.69;88.78
55468;BME280;41332;42.702;23.200;2022-09-03T04:05:27;94034.66;;;15.73;88.47
55468;BME280;41332;42.702;23.200;2022-09-03T04:07:53;94024.06;;;15.73;88.87
55468;BME280;41332;42.702;23.200;2022-09-03T04:10:18;94035.13;;;15.78;88.71
55468;BME280;41332;42.702;23.200;2022-09-03T04:12:44;94025.38;;;15.82;87.74
55468;BME280;41332;42.702;23.200;2022-09-03T04:15:09;94024.31;;;15.87;86.98
55468;BME280;41332;42.702;23.200;2022-09-03T04:17:34;94026.19;;;15.87;86.21
55468;BME280;41332;42.702;23.200;2022-09-03T04:20:00;94028.44;;;15.85;86.20
55468;BME280;41332;42.702;23.200;2022-09-03T04:22:27;94036.47;;;15.88;85.69
55468;BME280;41332;42.702;23.200;2022-09-03T04:24:53;94043.59;;;15.84;85.42
55468;BME280;41332;42.702;23.200;2022-09-03T04:27:18;94042.81;;;15.84;85.12
55468;BME280;41332;42.702;23.200;2022-09-03T04:29:43;94042.31;;;15.78;84.98
55468;BME280;41332;42.702;23.200;2022-09-03T04:32:09;94055.03;;;15.69;84.97
55468;BME280;41332;42.702;23.200;2022-09-03T04:34:53;94057.53;;;15.61;84.83
55468;BME280;41332;42.702;23.200;2022-09-03T04:37:19;94057.78;;;15.53;85.32
55468;BME280;41332;42.702;23.200;2022-09-03T04:39:44;94063.28;;;15.44;84.96
55468;BME280;41332;42.702;23.200;2022-09-03T04:42:10;94065.75;;;15.33;85.49
55468;BME280;41332;42.702;23.200;2022-09-03T04:44:35;94073.22;;;15.27;85.40
55468;BME280;41332;42.702;23.200;2022-09-03T04:47:06;94078.78;;;15.22;85.74
55468;BME280;41332;42.702;23.200;2022-09-03T04:49:31;94082.66;;;15.09;86.45
55468;BME280;41332;42.702;23.200;2022-09-03T04:51:56;94083.81;;;15.08;86.91
55468;BME280;41332;42.702;23.200;2022-09-03T04:54:22;94081.00;;;15.00;87.23
55468;BME280;41332;42.702;23.200;2022-09-03T04:56:47;94086.22;;;14.97;87.68
55468;BME280;41332;42.702;23.200;2022-09-03T04:59:12;94095.69;;;14.98;88.39
55468;BME280;41332;42.702;23.200;2022-09-03T05:01:39;94097.78;;;15.08;88.46
55468;BME280;41332;42.702;23.200;2022-09-03T05:04:05;94095.22;;;15.12;88.51
55468;BME280;41332;42.702;23.200;2022-09-03T05:06:32;94109.97;;;15.13;87.96
55468;BME280;41332;42.702;23.200;2022-09-03T05:08:58;94112.81;;;15.04;88.27
55468;BME280;41332;42.702;23.200;2022-09-03T05:11:25;94097.78;;;15.08;87.99
55468;BME280;41332;42.702;23.200;2022-09-03T05:13:53;94108.56;;;14.99;87.85
55468;BME280;41332;42.702;23.200;2022-09-03T05:16:20;94108.16;;;14.97;87.42
55468;BME280;41332;42.702;23.200;2022-09-03T05:18:46;94106.00;;;15.03;87.60
55468;BME280;41332;42.702;23.200;2022-09-03T05:21:14;94100.34;;;15.05;87.29
55468;BME280;41332;42.702;23.200;2022-09-03T05:23:49;94102.72;;;15.10;87.59
55468;BME280;41332;42.702;23.200;2022-09-03T05:26:21;94107.75;;;15.15;87.29
55468;BME280;41332;42.702;23.200;2022-09-03T05:28:47;94100.97;;;15.18;87.27
55468;BME280;41332;42.702;23.200;2022-09-03T05:31:13;94099.53;;;15.20;87.28
55468;BME280;41332;42.702;23.200;2022-09-03T05:33:42;94104.81;;;15.20;87.93
55468;BME280;41332;42.702;23.200;2022-09-03T05:36:10;94105.94;;;15.19;87.78
55468;BME280;41332;42.702;23.200;2022-09-03T05:38:37;94106.34;;;15.21;87.05
55468;BME280;41332;42.702;23.200;2022-09-03T05:41:05;94109.06;;;15.25;87.05
55468;BME280;41332;42.702;23.200;2022-09-03T05:43:32;94105.09;;;15.35;87.57
55468;BME280;41332;42.702;23.200;2022-09-03T05:46:08;94105.16;;;15.38;87.13
55468;BME280;41332;42.702;23.200;2022-09-03T05:48:36;94106.13;;;15.49;86.33
55468;BME280;41332;42.702;23.200;2022-09-03T05:53:34;94107.84;;;15.61;86.47
55468;BME280;41332;42.702;23.200;2022-09-03T05:56:01;94116.69;;;15.69;85.67
55468;BME280;41332;42.702;23.200;2022-09-03T05:58:32;94108.03;;;15.72;85.35
55468;BME280;41332;42.702;23.200;2022-09-03T06:00:59;94116.84;;;15.80;84.52
55468;BME280;41332;42.702;23.200;2022-09-03T06:03:25;94113.47;;;15.79;84.01
55468;BME280;41332;42.702;23.200;2022-09-03T06:05:51;94113.03;;;15.77;84.20
55468;BME280;41332;42.702;23.200;2022-09-03T06:08:17;94108.50;;;15.78;84.60
55468;BME280;41332;42.702;23.200;2022-09-03T06:10:43;94114.72;;;15.86;83.52
55468;BME280;41332;42.702;23.200;2022-09-03T06:13:08;94110.31;;;15.93;83.94
55468;BME280;41332;42.702;23.200;2022-09-03T06:15:33;94114.66;;;16.05;82.92
55468;BME280;41332;42.702;23.200;2022-09-03T06:17:59;94118.06;;;16.06;82.78
55468;BME280;41332;42.702;23.200;2022-09-03T06:20:24;94114.47;;;16.18;82.27
55468;BME280;41332;42.702;23.200;2022-09-03T06:22:53;94116.88;;;16.26;82.32
55468;BME280;41332;42.702;23.200;2022-09-03T06:25:18;94112.41;;;16.30;81.29
55468;BME280;41332;42.702;23.200;2022-09-03T06:27:44;94121.19;;;16.35;80.91
55468;BME280;41332;42.702;23.200;2022-09-03T06:30:11;94136.53;;;16.25;81.59
55468;BME280;41332;42.702;23.200;2022-09-03T06:32:44;94125.66;;;16.30;81.52
55468;BME280;41332;42.702;23.200;2022-09-03T06:35:09;94129.16;;;16.38;81.44
55468;BME280;41332;42.702;23.200;2022-09-03T06:37:39;94122.41;;;16.41;80.56
55468;BME280;41332;42.702;23.200;2022-09-03T06:40:05;94132.25;;;16.40;81.19
55468;BME280;41332;42.702;23.200;2022-09-03T06:42:40;94128.53;;;16.45;81.09
55468;BME280;41332;42.702;23.200;2022-09-03T06:45:09;94119.72;;;16.37;81.45
55468;BME280;41332;42.702;23.200;2022-09-03T06:47:35;94134.78;;;16.33;80.42
55468;BME280;41332;42.702;23.200;2022-09-03T06:50:00;94132.13;;;16.33;80.83
55468;BME280;41332;42.702;23.200;2022-09-03T06:52:27;94127.66;;;16.37;80.63
55468;BME280;41332;42.702;23.200;2022-09-03T06:54:52;94130.47;;;16.48;80.18
55468;BME280;41332;42.702;23.200;2022-09-03T06:57:18;94130.88;;;16.50;79.47
55468;BME280;41332;42.702;23.200;2022-09-03T06:59:43;94128.13;;;16.43;79.86
55468;BME280;41332;42.702;23.200;2022-09-03T07:02:09;94130.47;;;16.48;80.52
55468;BME280;41332;42.702;23.200;2022-09-03T07:04:35;94133.06;;;16.44;80.56
55468;BME280;41332;42.702;23.200;2022-09-03T07:07:00;94134.59;;;16.45;80.51
55468;BME280;41332;42.702;23.200;2022-09-03T07:09:26;94141.78;;;16.45;80.78
55468;BME280;41332;42.702;23.200;2022-09-03T07:11:51;94148.00;;;16.56;81.01
55468;BME280;41332;42.702;23.200;2022-09-03T07:14:18;94147.38;;;16.67;80.89
55468;BME280;41332;42.702;23.200;2022-09-03T07:16:44;94146.09;;;16.80;80.23
55468;BME280;41332;42.702;23.200;2022-09-03T07:19:10;94150.59;;;16.79;78.51
55468;BME280;41332;42.702;23.200;2022-09-03T07:21:38;94150.28;;;16.85;79.09
55468;BME280;41332;42.702;23.200;2022-09-03T07:24:06;94147.66;;;16.85;78.46
55468;BME280;41332;42.702;23.200;2022-09-03T07:26:35;94159.94;;;16.96;78.84
55468;BME280;41332;42.702;23.200;2022-09-03T07:29:00;94151.75;;;17.05;77.96
55468;BME280;41332;42.702;23.200;2022-09-03T07:31:29;94159.75;;;17.09;78.46
55468;BME280;41332;42.702;23.200;2022-09-03T07:34:00;94165.78;;;17.06;77.68
55468;BME280;41332;42.702;23.200;2022-09-03T07:36:28;94168.13;;;17.11;78.38
55468;BME280;41332;42.702;23.200;2022-09-03T07:38:56;94165.28;;;17.27;77.86
55468;BME280;41332;42.702;23.200;2022-09-03T07:41:22;94160.50;;;17.40;77.68
55468;BME280;41332;42.702;23.200;2022-09-03T07:43:49;94164.53;;;17.60;77.04
55468;BME280;41332;42.702;23.200;2022-09-03T07:46:20;94168.91;;;17.79;76.66
55468;BME280;41332;42.702;23.200;2022-09-03T07:48:49;94161.38;;;17.85;76.43
55468;BME280;41332;42.702;23.200;2022-09-03T07:51:17;94174.72;;;17.92;75.97
55468;BME280;41332;42.702;23.200;2022-09-03T07:53:44;94170.63;;;17.99;75.94
55468;BME280;41332;42.702;23.200;2022-09-03T07:56:11;94169.84;;;17.94;74.69
55468;BME280;41332;42.702;23.200;2022-09-03T07:58:38;94175.19;;;17.98;75.55
55468;BME280;41332;42.702;23.200;2022-09-03T08:01:09;94170.75;;;18.13;75.07
55468;BME280;41332;42.702;23.200;2022-09-03T08:03:35;94168.09;;;18.09;74.59
55468;BME280;41332;42.702;23.200;2022-09-03T08:06:02;94174.91;;;18.07;73.60
55468;BME280;41332;42.702;23.200;2022-09-03T08:08:28;94181.41;;;18.13;74.19
55468;BME280;41332;42.702;23.200;2022-09-03T08:10:54;94178.25;;;18.45;72.91
55468;BME280;41332;42.702;23.200;2022-09-03T08:13:20;94172.81;;;18.83;72.55
55468;BME280;41332;42.702;23.200;2022-09-03T08:15:53;94175.69;;;19.15;71.63
55468;BME280;41332;42.702;23.200;2022-09-03T08:18:19;94182.34;;;19.54;71.99
55468;BME280;41332;42.702;23.200;2022-09-03T08:20:44;94178.28;;;19.85;70.57
55468;BME280;41332;42.702;23.200;2022-09-03T08:23:11;94187.47;;;19.99;68.62
55468;BME280;41332;42.702;23.200;2022-09-03T08:25:36;94178.34;;;20.07;66.50
55468;BME280;41332;42.702;23.200;2022-09-03T08:28:01;94181.00;;;20.03;66.44
55468;BME280;41332;42.702;23.200;2022-09-03T08:30:27;94181.41;;;20.20;66.67
55468;BME280;41332;42.702;23.200;2022-09-03T08:32:53;94172.25;;;20.32;64.86
55468;BME280;41332;42.702;23.200;2022-09-03T08:35:19;94175.72;;;20.32;63.48
55468;BME280;41332;42.702;23.200;2022-09-03T08:37:45;94177.59;;;20.21;65.22
55468;BME280;41332;42.702;23.200;2022-09-03T08:40:13;94166.94;;;20.10;65.19
55468;BME280;41332;42.702;23.200;2022-09-03T08:45:21;94166.91;;;20.14;65.57
55468;BME280;41332;42.702;23.200;2022-09-03T08:47:52;94170.34;;;20.25;64.34
55468;BME280;41332;42.702;23.200;2022-09-03T08:50:31;94170.34;;;20.25;65.36
55468;BME280;41332;42.702;23.200;2022-09-03T08:53:25;94171.88;;;20.26;63.56
55468;BME280;41332;42.702;23.200;2022-09-03T08:56:07;94165.44;;;20.31;65.38
55468;BME280;41332;42.702;23.200;2022-09-03T08:58:34;94165.81;;;20.36;65.03
55468;BME280;41332;42.702;23.200;2022-09-03T09:13:57;94162.13;;;21.73;61.20
55468;BME280;41332;42.702;23.200;2022-09-03T09:22:11;94182.31;;;21.85;60.16
55468;BME280;41332;42.702;23.200;2022-09-03T09:24:44;94184.28;;;21.70;60.95
55468;BME280;41332;42.702;23.200;2022-09-03T09:27:13;94182.25;;;21.92;59.52
55468;BME280;41332;42.702;23.200;2022-09-03T09:29:42;94187.06;;;22.15;59.33
55468;BME280;41332;42.702;23.200;2022-09-03T09:32:11;94181.69;;;22.26;58.31
55468;BME280;41332;42.702;23.200;2022-09-03T09:34:39;94185.94;;;22.13;57.17
55468;BME280;41332;42.702;23.200;2022-09-03T09:37:12;94179.34;;;22.28;60.48
55468;BME280;41332;42.702;23.200;2022-09-03T09:39:39;94176.56;;;22.50;57.47
55468;BME280;41332;42.702;23.200;2022-09-03T09:42:07;94180.63;;;22.65;57.40
55468;BME280;41332;42.702;23.200;2022-09-03T09:44:39;94183.72;;;22.64;56.18
55468;BME280;41332;42.702;23.200;2022-09-03T09:47:11;94185.63;;;22.60;56.79
55468;BME280;41332;42.702;23.200;2022-09-03T09:49:50;94187.53;;;22.63;57.98
55468;BME280;41332;42.702;23.200;2022-09-03T09:52:16;94186.41;;;22.60;55.21
55468;BME280;41332;42.702;23.200;2022-09-03T09:54:43;94185.00;;;22.48;55.77
55468;BME280;41332;42.702;23.200;2022-09-03T09:57:23;94181.84;;;22.57;57.49
55468;BME280;41332;42.702;23.200;2022-09-03T10:00:00;94186.94;;;22.44;58.40
55468;BME280;41332;42.702;23.200;2022-09-03T10:02:27;94190.41;;;22.37;55.49
55468;BME280;41332;42.702;23.200;2022-09-03T10:04:54;94186.97;;;22.30;56.10
55468;BME280;41332;42.702;23.200;2022-09-03T10:07:31;94182.81;;;22.25;56.15
55468;BME280;41332;42.702;23.200;2022-09-03T10:12:45;94191.91;;;22.35;56.80
55468;BME280;41332;42.702;23.200;2022-09-03T10:18:08;94180.28;;;22.60;56.93
55468;BME280;41332;42.702;23.200;2022-09-03T10:25:37;94183.34;;;22.62;56.42
55468;BME280;41332;42.702;23.200;2022-09-03T10:28:06;94179.81;;;22.72;56.07
55468;BME280;41332;42.702;23.200;2022-09-03T10:33:46;94179.38;;;22.81;53.95
55468;BME280;41332;42.702;23.200;2022-09-03T10:38:54;94181.88;;;22.99;55.65
55468;BME280;41332;42.702;23.200;2022-09-03T10:49:52;94182.09;;;23.15;52.38
55468;BME280;41332;42.702;23.200;2022-09-03T10:52:28;94184.41;;;23.17;55.41
55468;BME280;41332;42.702;23.200;2022-09-03T10:55:03;94186.22;;;23.27;54.91
55468;BME280;41332;42.702;23.200;2022-09-03T10:57:46;94183.28;;;23.11;53.64
55468;BME280;41332;42.702;23.200;2022-09-03T11:00:14;94182.03;;;23.23;56.39
55468;BME280;41332;42.702;23.200;2022-09-03T11:05:33;94190.44;;;23.25;55.33
55468;BME280;41332;42.702;23.200;2022-09-03T11:08:15;94190.03;;;23.26;53.85
55468;BME280;41332;42.702;23.200;2022-09-03T11:10:48;94185.72;;;23.36;54.54
55468;BME280;41332;42.702;23.200;2022-09-03T11:13:41;94194.50;;;23.40;55.31
55468;BME280;41332;42.702;23.200;2022-09-03T11:16:16;94197.56;;;23.38;53.53
55468;BME280;41332;42.702;23.200;2022-09-03T11:18:50;94191.03;;;23.40;54.62
55468;BME280;41332;42.702;23.200;2022-09-03T11:21:21;94182.31;;;23.32;53.68
55468;BME280;41332;42.702;23.200;2022-09-03T11:26:31;94190.25;;;23.43;54.56
55468;BME280;41332;42.702;23.200;2022-09-03T11:29:28;94188.25;;;23.50;53.32
55468;BME280;41332;42.702;23.200;2022-09-03T11:32:04;94190.13;;;23.53;53.56
55468;BME280;41332;42.702;23.200;2022-09-03T11:34:51;94179.41;;;23.53;53.34
55468;BME280;41332;42.702;23.200;2022-09-03T11:37:28;94179.41;;;23.53;54.19
55468;BME280;41332;42.702;23.200;2022-09-03T11:40:03;94185.25;;;23.45;53.52
55468;BME280;41332;42.702;23.200;2022-09-03T11:45:21;94176.47;;;23.44;55.51
55468;BME280;41332;42.702;23.200;2022-09-03T11:47:48;94183.28;;;23.49;54.46
55468;BME280;41332;42.702;23.200;2022-09-03T11:50:30;94187.84;;;23.52;53.02
55468;BME280;41332;42.702;23.200;2022-09-03T11:55:51;94184.84;;;23.46;52.85
55468;BME280;41332;42.702;23.200;2022-09-03T11:58:39;94188.38;;;23.40;54.66
55468;BME280;41332;42.702;23.200;2022-09-03T12:01:14;94188.06;;;23.34;54.51
55468;BME280;41332;42.702;23.200;2022-09-03T12:03:48;94180.69;;;23.42;54.15
55468;BME280;41332;42.702;23.200;2022-09-03T12:12:20;94163.09;;;23.41;52.84
55468;BME280;41332;42.702;23.200;2022-09-03T12:20:12;94167.41;;;23.31;53.95
55468;BME280;41332;42.702;23.200;2022-09-03T12:22:39;94173.84;;;23.37;52.19
55468;BME280;41332;42.702;23.200;2022-09-03T12:25:12;94166.28;;;23.28;53.45
55468;BME280;41332;42.702;23.200;2022-09-03T12:27:39;94158.69;;;23.23;53.63
55468;BME280;41332;42.702;23.200;2022-09-03T12:30:15;94164.88;;;23.16;53.78
55468;BME280;41332;42.702;23.200;2022-09-03T12:32:42;94158.66;;;23.27;53.47
55468;BME280;41332;42.702;23.200;2022-09-03T12:35:25;94162.84;;;23.28;53.06
55468;BME280;41332;42.702;23.200;2022-09-03T12:37:51;94160.97;;;23.25;52.72
55468;BME280;41332;42.702;23.200;2022-09-03T12:40:20;94159.47;;;23.24;54.80
55468;BME280;41332;42.702;23.200;2022-09-03T12:42:47;94160.88;;;23.32;53.45
55468;BME280;41332;42.702;23.200;2022-09-03T12:45:14;94164.00;;;23.27;51.27
55468;BME280;41332;42.702;23.200;2022-09-03T12:47:43;94156.34;;;23.29;51.83
55468;BME280;41332;42.702;23.200;2022-09-03T12:52:52;94154.94;;;23.13;53.22
55468;BME280;41332;42.702;23.200;2022-09-03T12:55:32;94148.16;;;23.05;53.84
55468;BME280;41332;42.702;23.200;2022-09-03T12:58:09;94147.75;;;23.07;54.61
55468;BME280;41332;42.702;23.200;2022-09-03T13:00:44;94142.03;;;23.04;53.81
55468;BME280;41332;42.702;23.200;2022-09-03T13:05:58;94146.94;;;23.10;53.09
55468;BME280;41332;42.702;23.200;2022-09-03T13:08:54;94138.88;;;23.13;52.44
55468;BME280;41332;42.702;23.200;2022-09-03T13:11:21;94145.94;;;22.96;53.12
55468;BME280;41332;42.702;23.200;2022-09-03T13:19:03;94126.25;;;22.76;54.63
55468;BME280;41332;42.702;23.200;2022-09-03T13:21:45;94126.22;;;22.79;54.20
55468;BME280;41332;42.702;23.200;2022-09-03T13:34:59;94120.09;;;22.37;54.46
55468;BME280;41332;42.702;23.200;2022-09-03T13:37:39;94113.47;;;22.49;55.10
55468;BME280;41332;42.702;23.200;2022-09-03T13:45:47;94117.66;;;22.53;53.83
55468;BME280;41332;42.702;23.200;2022-09-03T13:48:21;94119.84;;;22.66;54.89
55468;BME280;41332;42.702;23.200;2022-09-03T13:56:52;94118.66;;;22.70;52.10
55468;BME280;41332;42.702;23.200;2022-09-03T14:05:01;94126.47;;;22.92;52.69
55468;BME280;41332;42.702;23.200;2022-09-03T14:13:47;94124.53;;;22.93;53.70
55468;BME280;41332;42.702;23.200;2022-09-03T14:21:30;94116.19;;;22.87;52.45
55468;BME280;41332;42.702;23.200;2022-09-03T14:24:11;94124.94;;;22.91;53.28
55468;BME280;41332;42.702;23.200;2022-09-03T14:26:53;94125.25;;;22.97;52.45
55468;BME280;41332;42.702;23.200;2022-09-03T14:29:23;94121.41;;;23.01;52.83
55468;BME280;41332;42.702;23.200;2022-09-03T14:32:04;94126.47;;;22.92;51.44
55468;BME280;41332;42.702;23.200;2022-09-03T14:40:46;94117.66;;;22.53;53.51
55468;BME280;41332;42.702;23.200;2022-09-03T14:43:29;94125.72;;;22.50;53.97
55468;BME280;41332;42.702;23.200;2022-09-03T14:49:02;94136.13;;;22.37;54.50
55468;BME280;41332;42.702;23.200;2022-09-03T15:00:21;94137.38;;;22.18;54.90
55468;BME280;41332;42.702;23.200;2022-09-03T15:08:38;94136.38;;;21.97;56.33
55468;BME280;41332;42.702;23.200;2022-09-03T15:11:14;94144.06;;;21.95;55.37
55468;BME280;41332;42.702;23.200;2022-09-03T15:16:39;94144.88;;;21.85;55.09
55468;BME280;41332;42.702;23.200;2022-09-03T15:19:18;94146.78;;;21.81;56.30
55468;BME280;41332;42.702;23.200;2022-09-03T15:32:40;94150.31;;;21.63;55.69
55468;BME280;41332;42.702;23.200;2022-09-03T15:35:10;94146.94;;;21.55;55.63
55468;BME280;41332;42.702;23.200;2022-09-03T15:37:47;94153.78;;;21.56;56.53
55468;BME280;41332;42.702;23.200;2022-09-03T15:42:43;94159.13;;;21.46;56.10
55468;BME280;41332;42.702;23.200;2022-09-03T15:48:12;94153.50;;;21.22;56.64
55468;BME280;41332;42.702;23.200;2022-09-03T15:51:05;94155.03;;;21.16;56.44
55468;BME280;41332;42.702;23.200;2022-09-03T15:56:47;94165.38;;;21.03;57.80
55468;BME280;41332;42.702;23.200;2022-09-03T16:02:17;94163.88;;;20.91;58.41
55468;BME280;41332;42.702;23.200;2022-09-03T16:15:21;94179.53;;;20.67;58.97
55468;BME280;41332;42.702;23.200;2022-09-03T16:18:08;94187.50;;;20.56;58.07
55468;BME280;41332;42.702;23.200;2022-09-03T16:20:42;94188.66;;;20.48;59.01
55468;BME280;41332;42.702;23.200;2022-09-03T16:25:54;94196.66;;;20.23;60.66
55468;BME280;41332;42.702;23.200;2022-09-03T16:28:29;94195.50;;;20.28;60.63
55468;BME280;41332;42.702;23.200;2022-09-03T16:33:46;94190.56;;;20.37;59.72
55468;BME280;41332;42.702;23.200;2022-09-03T16:42:05;94201.97;;;20.12;60.59
55468;BME280;41332;42.702;23.200;2022-09-03T17:02:03;94207.22;;;19.90;61.80
55468;BME280;41332;42.702;23.200;2022-09-03T17:12:50;94228.13;;;19.81;62.32
55468;BME280;41332;42.702;23.200;2022-09-03T17:15:33;94230.41;;;19.79;62.77
55468;BME280;41332;42.702;23.200;2022-09-03T17:21:25;94227.72;;;19.75;62.69
55468;BME280;41332;42.702;23.200;2022-09-03T17:24:08;94234.19;;;19.67;62.96
55468;BME280;41332;42.702;23.200;2022-09-03T17:29:34;94234.94;;;19.71;64.29
55468;BME280;41332;42.702;23.200;2022-09-03T17:43:05;94265.00;;;19.65;65.31
55468;BME280;41332;42.702;23.200;2022-09-03T17:46:08;94280.53;;;19.52;65.20
55468;BME280;41332;42.702;23.200;2022-09-03T17:48:51;94272.88;;;19.50;64.88
55468;BME280;41332;42.702;23.200;2022-09-03T17:53:54;94288.84;;;19.43;65.22
55468;BME280;41332;42.702;23.200;2022-09-03T17:56:28;94286.19;;;19.43;65.75
55468;BME280;41332;42.702;23.200;2022-09-03T18:01:48;94279.28;;;19.38;66.08
55468;BME280;41332;42.702;23.200;2022-09-03T18:04:30;94287.31;;;19.42;65.81
55468;BME280;41332;42.702;23.200;2022-09-03T18:07:23;94296.47;;;19.48;66.11
55468;BME280;41332;42.702;23.200;2022-09-03T18:10:07;94301.38;;;19.39;66.83